Time;durP1;ratioP1;P1;durP2;ratioP2;P2;SDS_P1;SDS_P2;PMS_P1;PMS_P2;Temp;Humidity;BMP_temperature;BMP_pressure;BME280_temperature;BME280_humidity;BME280_pressure;Samples;Min_cycle;Max_cycle;Signal;HPM_P1;HPM_P2
2022/05/24 00:01:21;;;;;;;11.85;9.63;;;;;;;9.58;78.83;100074.52;1768869;80;21304;-70
2022/05/24 00:03:48;;;;;;;11.40;9.40;;;;;;;9.53;78.72;100072.61;1768534;80;21033;-69
2022/05/24 00:06:15;;;;;;;12.85;9.63;;;;;;;9.49;78.64;100086.20;1768606;80;21029;-68
2022/05/24 00:08:44;;;;;;;12.80;10.28;;;;;;;9.45;78.77;100079.80;1768321;80;21070;-69
2022/05/24 00:11:13;;;;;;;14.28;10.70;;;;;;;9.45;79.05;100088.33;1767709;79;20989;-70
2022/05/24 00:13:40;;;;;;;11.63;9.65;;;;;;;9.46;79.30;100084.59;1770266;80;22114;-69
2022/05/24 00:16:07;;;;;;;13.10;10.68;;;;;;;9.46;79.49;100084.05;1766935;80;20987;-70
2022/05/24 00:18:35;;;;;;;12.30;10.55;;;;;;;9.47;79.59;100088.85;1767546;80;21540;-70
2022/05/24 00:21:04;;;;;;;12.50;9.85;;;;;;;9.47;79.72;100090.98;1763811;80;20998;-69
2022/05/24 00:23:31;;;;;;;11.95;10.10;;;;;;;9.48;79.89;100089.14;1767521;80;21182;-69
2022/05/24 00:26:07;;;;;;;13.70;10.43;;;;;;;9.48;80.04;100082.48;1768349;80;21206;-69
2022/05/24 00:28:35;;;;;;;13.50;10.43;;;;;;;9.49;80.13;100082.20;1755675;80;21097;-69
2022/05/24 00:31:03;;;;;;;13.90;10.43;;;;;;;9.50;80.21;100089.66;1769292;80;21038;-69
2022/05/24 00:33:32;;;;;;;11.85;10.38;;;;;;;9.49;80.26;100087.53;1769409;80;20998;-70
2022/05/24 00:35:59;;;;;;;14.40;10.40;;;;;;;9.49;80.28;100090.20;1770096;80;21033;-70
2022/05/24 00:38:30;;;;;;;12.47;9.93;;;;;;;9.48;80.30;100093.14;1769063;80;21600;-70
2022/05/24 00:41:12;;;;;;;11.75;9.53;;;;;;;9.49;80.38;100098.20;1769474;80;22549;-69
2022/05/24 00:43:44;;;;;;;13.65;10.35;;;;;;;9.49;80.43;100094.73;1770492;80;21034;-69
2022/05/24 00:46:28;;;;;;;18.45;10.78;;;;;;;9.46;80.46;100094.72;1767820;80;21057;-69
2022/05/24 00:49:05;;;;;;;12.20;10.63;;;;;;;9.45;80.46;100102.45;1767431;80;21002;-69
2022/05/24 00:51:42;;;;;;;12.25;10.70;;;;;;;9.44;80.41;100100.03;1767599;80;21188;-69
2022/05/24 00:54:09;;;;;;;12.45;10.28;;;;;;;9.39;80.35;100098.95;1768157;80;21518;-70
2022/05/24 00:57:29;;;;;;;11.88;9.88;;;;;;;9.35;80.31;100093.88;1768106;80;20990;-70
2022/05/24 01:00:10;;;;;;;10.75;9.30;;;;;;;9.32;80.29;100094.40;1753760;80;21049;-69
2022/05/24 01:02:38;;;;;;;;;;;;;;;9.28;80.18;100096.49;1769720;80;21030;-68
2022/05/24 01:05:08;;;;;;;11.15;9.38;;;;;;;9.22;80.10;100097.55;1766707;80;21229;-69
2022/05/24 01:07:36;;;;;;;12.90;10.20;;;;;;;9.18;80.12;100093.78;1768854;80;21037;-69
2022/05/24 01:10:11;;;;;;;13.00;10.28;;;;;;;9.16;80.21;100103.38;1768725;80;20987;-69
2022/05/24 01:13:05;;;;;;;13.68;10.00;;;;;;;9.16;80.21;100100.17;1769207;80;21553;-69
2022/05/24 01:15:33;;;;;;;13.10;10.38;;;;;;;9.14;80.15;100100.95;1767666;80;21025;-69
2022/05/24 01:18:01;;;;;;;12.07;9.43;;;;;;;9.12;80.03;100103.62;1742426;81;21891;-69
2022/05/24 01:20:28;;;;;;;12.20;9.68;;;;;;;9.10;80.03;100105.20;1769062;80;21548;-69
2022/05/24 01:23:09;;;;;;;12.80;10.00;;;;;;;9.06;79.96;100106.78;1769403;80;20995;-69
2022/05/24 01:25:58;;;;;;;11.65;9.08;;;;;;;9.01;79.87;100104.08;1769882;80;20951;-69
2022/05/24 01:28:53;;;;;;;11.70;9.28;;;;;;;9.00;79.93;100116.33;1721535;82;21004;-69
2022/05/24 01:31:21;;;;;;;14.13;10.25;;;;;;;8.95;79.89;100103.80;1740507;82;21290;-70
2022/05/24 01:36:37;;;;;;;14.53;10.78;;;;;;;8.82;79.41;100105.58;1763912;80;21164;-69
2022/05/24 01:39:08;;;;;;;;;;;;;;;8.68;79.11;100107.32;1746434;81;21046;-70
2022/05/24 01:41:44;;;;;;;13.20;9.70;;;;;;;8.58;79.00;100115.77;1765305;80;20142;-70
2022/05/24 01:44:11;;;;;;;15.32;10.03;;;;;;;8.50;79.00;100107.73;1755690;80;21787;-69
2022/05/24 01:46:45;;;;;;;14.18;10.43;;;;;;;8.46;79.02;100106.63;1728695;81;21002;-70
2022/05/24 01:49:25;;;;;;;15.10;10.32;;;;;;;8.41;79.06;100110.04;1762681;80;20938;-70
2022/05/24 01:52:09;;;;;;;12.50;9.78;;;;;;;8.40;79.15;100104.98;1758706;80;21573;-70
2022/05/24 01:54:41;;;;;;;12.98;10.10;;;;;;;8.35;79.15;100108.36;1764992;80;21565;-70
2022/05/24 01:57:26;;;;;;;14.07;11.10;;;;;;;8.35;79.32;100107.56;1760244;80;21879;-70
2022/05/24 01:59:55;;;;;;;18.02;11.95;;;;;;;8.34;79.47;100109.95;1759613;80;21498;-70
2022/05/24 02:02:22;;;;;;;15.25;11.70;;;;;;;8.33;79.63;100109.69;1766046;80;21006;-70
2022/05/24 02:04:49;;;;;;;13.90;11.22;;;;;;;8.35;79.83;100119.53;1766897;80;21058;-67
2022/05/24 02:07:21;;;;;;;14.00;11.25;;;;;;;8.35;79.94;100114.20;1766053;80;21046;-72
2022/05/24 02:09:51;;;;;;;16.17;11.25;;;;;;;8.35;79.99;100111.02;1756908;80;21206;-70
2022/05/24 02:12:23;;;;;;;16.40;11.57;;;;;;;8.35;80.05;100113.67;1763157;80;21030;-70
2022/05/24 02:15:12;;;;;;;14.53;10.80;;;;;;;8.37;80.08;100116.10;1766419;80;21682;-70
2022/05/24 02:17:46;;;;;;;14.00;10.60;;;;;;;8.37;80.09;100117.43;1743784;81;20954;-69
2022/05/24 02:20:19;;;;;;;15.00;11.12;;;;;;;8.37;80.15;100126.22;1762070;80;21552;-68
2022/05/24 02:22:46;;;;;;;16.00;12.15;;;;;;;8.39;80.25;100129.97;1765022;80;21128;-69
2022/05/24 02:25:44;;;;;;;14.90;11.78;;;;;;;8.41;80.35;100129.20;1763877;80;21459;-69
2022/05/24 02:28:12;;;;;;;13.83;11.05;;;;;;;8.43;80.46;100131.09;1762378;80;20987;-69
2022/05/24 02:30:50;;;;;;;16.62;12.05;;;;;;;8.47;80.59;100130.86;1763793;80;21106;-69
2022/05/24 02:33:18;;;;;;;15.63;12.43;;;;;;;8.52;80.72;100135.41;1755411;81;21101;-69
2022/05/24 02:35:46;;;;;;;14.70;12.03;;;;;;;8.56;80.93;100135.20;1765805;80;21794;-69
2022/05/24 02:38:14;;;;;;;17.45;13.43;;;;;;;8.62;81.12;100136.81;1765784;80;21096;-69
2022/05/24 02:43:29;;;;;;;14.73;11.25;;;;;;;8.71;81.44;100139.30;1767122;80;20994;-69
2022/05/24 02:45:56;;;;;;;15.75;12.20;;;;;;;8.76;81.53;100130.03;1764330;80;20982;-69
2022/05/24 02:48:23;;;;;;;15.00;12.63;;;;;;;8.81;81.61;100134.58;1765956;80;21126;-69
2022/05/24 02:50:50;;;;;;;17.05;12.85;;;;;;;8.86;81.66;100139.95;1764738;80;20991;-70
2022/05/24 02:53:18;;;;;;;17.32;13.05;;;;;;;8.91;81.69;100136.77;1763586;80;21060;-69
2022/05/24 02:55:46;;;;;;;14.28;11.28;;;;;;;8.95;81.72;100141.09;1766428;80;21030;-69
2022/05/24 02:58:14;;;;;;;15.25;11.73;;;;;;;9.01;81.79;100137.91;1764717;80;21049;-69
2022/05/24 03:00:42;;;;;;;17.25;12.53;;;;;;;9.06;81.85;100140.08;1763738;80;21726;-72
2022/05/24 03:03:09;;;;;;;15.98;11.93;;;;;;;9.12;81.85;100141.72;1766691;80;21015;-69
2022/05/24 03:05:36;;;;;;;15.63;11.12;;;;;;;9.15;81.83;100141.21;1752112;80;21585;-69
2022/05/24 03:10:50;;;;;;;14.03;11.28;;;;;;;9.25;81.88;100141.01;1762353;80;21572;-68
2022/05/24 03:16:10;;;;;;;18.27;13.25;;;;;;;9.37;81.88;100145.05;1766168;80;21572;-69
2022/05/24 03:18:40;;;;;;;14.73;12.35;;;;;;;9.44;81.85;100154.14;1765018;80;20982;-69
2022/05/24 03:21:06;;;;;;;16.80;13.00;;;;;;;9.49;81.91;100151.52;1767153;80;20967;-71
2022/05/24 03:23:34;;;;;;;15.15;12.47;;;;;;;9.57;81.98;100156.34;1766164;80;21077;-69
2022/05/24 03:26:01;;;;;;;17.48;13.50;;;;;;;9.65;82.07;100152.93;1765876;80;21241;-69
2022/05/24 03:28:29;;;;;;;18.85;13.65;;;;;;;9.72;82.19;100158.28;1766348;80;21054;-69
2022/05/24 03:30:56;;;;;;;16.48;13.00;;;;;;;9.81;82.25;100162.06;1765315;80;21537;-70
2022/05/24 03:33:24;;;;;;;16.87;13.20;;;;;;;9.91;82.32;100163.96;1765643;80;21853;-70
2022/05/24 03:35:52;;;;;;;16.85;12.78;;;;;;;10.02;82.36;100167.45;1765844;80;21493;-70
2022/05/24 03:38:18;;;;;;;16.42;13.08;;;;;;;10.12;82.38;100165.34;1764297;80;21109;-70
2022/05/24 03:40:46;;;;;;;17.32;13.15;;;;;;;10.21;82.33;100165.11;1762664;80;20943;-69
2022/05/24 03:43:14;;;;;;;15.55;12.82;;;;;;;10.30;82.27;100163.56;1764427;80;21431;-70
2022/05/24 03:45:41;;;;;;;21.87;15.00;;;;;;;10.39;82.17;100173.97;1759125;81;21018;-69
2022/05/24 03:48:11;;;;;;;22.62;14.75;;;;;;;10.47;81.98;100174.00;1761167;80;21125;-70
2022/05/24 03:50:37;;;;;;;19.12;14.18;;;;;;;10.53;81.64;100167.59;1766434;80;21216;-70
2022/05/24 03:53:04;;;;;;;21.52;15.53;;;;;;;10.61;81.21;100167.59;1760886;80;21017;-70
2022/05/24 03:55:32;;;;;;;22.65;15.58;;;;;;;10.69;80.79;100169.72;1765582;80;21564;-70
2022/05/24 03:58:01;;;;;;;18.80;14.20;;;;;;;10.76;80.21;100174.28;1764940;80;21050;-70
2022/05/24 04:00:36;;;;;;;18.73;14.70;;;;;;;10.81;79.34;100166.25;1766221;80;21552;-69
2022/05/24 04:03:04;;;;;;;18.95;14.23;;;;;;;10.87;78.19;100162.52;1746054;80;21241;-69
2022/05/24 04:05:32;;;;;;;19.30;13.35;;;;;;;10.93;77.48;100164.66;1763835;80;21003;-70
2022/05/24 04:08:00;;;;;;;19.60;13.65;;;;;;;11.01;76.88;100166.23;1765681;80;21026;-70
2022/05/24 04:10:29;;;;;;;17.95;12.85;;;;;;;11.11;76.02;100164.62;1758272;80;20975;-69
2022/05/24 04:12:57;;;;;;;19.12;12.98;;;;;;;11.19;75.44;100168.90;1768209;80;21089;-70
2022/05/24 04:15:24;;;;;;;16.87;12.20;;;;;;;11.29;74.81;100169.41;1764909;80;21533;-68
2022/05/24 04:17:52;;;;;;;17.32;12.28;;;;;;;11.41;74.26;100171.77;1763017;80;20998;-69
2022/05/24 04:20:22;;;;;;;21.95;12.95;;;;;;;11.52;73.24;100176.04;1762938;80;21022;-69
2022/05/24 04:22:52;;;;;;;18.57;12.00;;;;;;;11.63;72.70;100182.15;1759351;80;21069;-68
2022/05/24 04:25:20;;;;;;;15.25;10.82;;;;;;;11.73;72.10;100178.09;1764979;80;21466;-70
2022/05/24 04:27:48;;;;;;;16.37;11.95;;;;;;;11.86;71.60;100187.45;1760365;80;21138;-70
2022/05/24 04:30:18;;;;;;;17.70;12.35;;;;;;;11.96;70.91;100182.84;1764716;80;21074;-69
2022/05/24 04:32:45;;;;;;;16.40;11.22;;;;;;;12.07;70.17;100182.78;1764554;80;20990;-69
2022/05/24 04:35:12;;;;;;;15.28;11.55;;;;;;;12.18;69.63;100191.84;1763189;80;21021;-68
2022/05/24 04:37:39;;;;;;;15.53;11.57;;;;;;;12.28;68.94;100186.17;1760709;80;20951;-69
2022/05/24 04:40:09;;;;;;;16.30;11.78;;;;;;;12.42;68.46;100189.82;1765965;80;20963;-70
2022/05/24 04:42:38;;;;;;;15.65;10.43;;;;;;;12.54;67.66;100189.48;1750283;80;20986;-69
2022/05/24 04:45:11;;;;;;;15.55;11.50;;;;;;;12.64;66.69;100190.75;1763840;80;21050;-69
2022/05/24 04:47:39;;;;;;;14.60;10.78;;;;;;;12.76;66.11;100188.49;1766211;80;20995;-69
2022/05/24 04:50:10;;;;;;;15.53;10.45;;;;;;;12.88;65.30;100190.28;1764883;80;21406;-70
2022/05/24 04:52:39;;;;;;;15.58;10.43;;;;;;;13.01;64.64;100188.83;1766079;80;21115;-70
2022/05/24 04:55:11;;;;;;;15.03;9.50;;;;;;;13.13;63.44;100195.97;1765235;80;20935;-70
2022/05/24 04:57:38;;;;;;;13.65;9.13;;;;;;;13.26;62.40;100187.01;1764721;79;22175;-70
2022/05/24 05:00:07;;;;;;;12.63;8.73;;;;;;;13.38;61.92;100198.16;1764012;80;20978;-70
2022/05/24 05:02:35;;;;;;;12.47;8.70;;;;;;;13.50;61.28;100198.58;1763773;80;21962;-71
2022/05/24 05:05:02;;;;;;;12.40;7.97;;;;;;;13.65;60.35;100198.94;1764613;80;21474;-71
2022/05/24 05:07:31;;;;;;;14.27;8.90;;;;;;;13.80;59.51;100202.00;1765408;80;21400;-71
2022/05/24 05:09:59;;;;;;;12.93;8.80;;;;;;;13.94;58.77;100194.83;1721378;81;21428;-71
2022/05/24 05:12:26;;;;;;;12.20;8.00;;;;;;;14.08;58.15;100198.42;1764950;80;21185;-70
2022/05/24 05:14:54;;;;;;;11.93;7.97;;;;;;;14.21;57.51;100197.44;1764814;80;21140;-71
2022/05/24 05:17:21;;;;;;;12.10;7.93;;;;;;;14.34;56.57;100191.89;1764805;80;21586;-70
2022/05/24 05:19:48;;;;;;;13.27;7.80;;;;;;;14.42;55.43;100198.76;1765489;80;21237;-71
2022/05/24 05:22:16;;;;;;;10.73;7.37;;;;;;;14.50;54.66;100199.98;1765721;80;21704;-70
2022/05/24 05:24:43;;;;;;;9.63;6.43;;;;;;;14.58;53.46;100204.74;1758710;80;21277;-70
2022/05/24 05:27:10;;;;;;;10.87;6.23;;;;;;;14.68;52.73;100195.17;1756353;81;21815;-70
2022/05/24 05:32:30;;;;;;;9.77;6.23;;;;;;;14.95;52.86;100192.32;1761330;79;21764;-70
2022/05/24 05:34:58;;;;;;;8.83;6.33;;;;;;;15.16;52.33;100199.48;1707682;82;21709;-70
2022/05/24 05:37:30;;;;;;;11.30;6.43;;;;;;;15.30;51.45;100198.16;1715501;82;21119;-71
2022/05/24 05:39:57;;;;;;;;;;;;;;;15.46;50.39;100198.12;1717081;82;21095;-70
2022/05/24 05:42:24;;;;;;;8.00;5.60;;;;;;;15.59;49.20;100197.88;1714861;82;21130;-70
2022/05/24 05:44:52;;;;;;;10.07;5.23;;;;;;;15.71;47.80;100202.27;1715747;82;21346;-71
2022/05/24 05:47:19;;;;;;;9.03;4.80;;;;;;;15.81;46.28;100200.71;1713541;82;21337;-71
2022/05/24 05:49:46;;;;;;;6.63;4.67;;;;;;;15.90;45.13;100196.77;1716071;82;21323;-69
2022/05/24 05:52:15;;;;;;;8.80;4.70;;;;;;;15.98;43.58;100189.87;1714874;82;21896;-71
2022/05/24 05:54:44;;;;;;;7.20;4.03;;;;;;;16.07;43.58;100192.11;1713075;82;21332;-69
2022/05/24 05:57:12;;;;;;;9.70;4.73;;;;;;;16.15;42.43;100192.72;1714368;82;21550;-71
2022/05/24 05:59:39;;;;;;;6.57;4.23;;;;;;;16.24;41.75;100194.95;1713551;82;22009;-70
2022/05/24 06:02:07;;;;;;;7.23;4.20;;;;;;;16.31;40.59;100192.63;1713745;82;21461;-70
2022/05/24 06:04:34;;;;;;;7.60;4.33;;;;;;;16.41;39.96;100194.30;1716132;82;21444;-70
2022/05/24 06:07:02;;;;;;;6.63;4.20;;;;;;;16.46;39.96;100190.16;1716854;82;21833;-70
2022/05/24 06:09:29;;;;;;;7.83;3.93;;;;;;;16.56;39.98;100192.61;1715449;82;21648;-70
2022/05/24 06:11:59;;;;;;;5.33;3.20;;;;;;;16.71;39.06;100196.04;1697791;82;22104;-71
2022/05/24 06:14:26;;;;;;;4.87;3.03;;;;;;;16.85;37.86;100190.08;1715764;82;21762;-70
2022/05/24 06:16:53;;;;;;;4.73;3.03;;;;;;;17.06;34.12;100185.75;1715997;82;21679;-69
2022/05/24 06:19:19;;;;;;;6.37;2.80;;;;;;;17.06;34.12;100185.75;1714994;82;21709;-70
2022/05/24 06:21:48;;;;;;;5.73;2.90;;;;;;;17.13;33.69;100185.30;1714083;82;21704;-71
2022/05/24 06:24:16;;;;;;;5.07;2.70;;;;;;;17.20;33.90;100187.56;1717033;82;21695;-70
2022/05/24 06:26:43;;;;;;;3.93;2.33;;;;;;;17.32;32.93;100197.23;1714439;82;21765;-70
2022/05/24 06:29:11;;;;;;;4.13;2.40;;;;;;;17.39;31.08;100198.13;1713864;82;22337;-70
2022/05/24 06:31:38;;;;;;;4.10;2.30;;;;;;;17.42;31.04;100200.22;1714796;82;21833;-71
2022/05/24 06:34:05;;;;;;;4.83;2.40;;;;;;;17.44;30.78;100192.58;1714269;82;22111;-70
2022/05/24 06:36:32;;;;;;;6.30;2.90;;;;;;;17.48;30.48;100192.22;1713897;82;22224;-70
2022/05/24 06:38:59;;;;;;;5.33;2.20;;;;;;;17.53;30.82;100188.02;1700683;82;21703;-71
2022/05/24 06:41:26;;;;;;;4.00;2.20;;;;;;;17.63;29.00;100188.29;1715783;82;22209;-71
2022/05/24 06:43:54;;;;;;;4.53;2.43;;;;;;;17.71;28.29;100192.94;1715663;82;21116;-70
2022/05/24 06:46:21;;;;;;;4.97;2.43;;;;;;;17.71;28.29;100192.94;1715379;82;21043;-71
2022/05/24 06:48:50;;;;;;;6.60;2.40;;;;;;;17.72;28.81;100189.91;1699897;82;21679;-71
2022/05/24 06:51:19;;;;;;;6.50;2.37;;;;;;;17.80;28.30;100184.31;1716271;82;20948;-71
2022/05/24 06:53:48;;;;;;;4.43;2.37;;;;;;;17.85;28.67;100188.23;1715961;82;20948;-70
2022/05/24 06:56:16;;;;;;;4.93;2.20;;;;;;;17.91;28.27;100184.83;1699924;82;21077;-70
2022/05/24 06:58:45;;;;;;;5.20;2.43;;;;;;;17.94;27.64;100190.41;1716981;82;20984;-70
2022/05/24 07:03:58;;;;;;;4.13;2.10;;;;;;;18.11;27.43;100191.55;1714556;82;21439;-70
2022/05/24 07:06:25;;;;;;;5.27;2.27;;;;;;;18.11;27.43;100191.55;1714951;82;21111;-70
2022/05/24 07:08:52;;;;;;;3.47;2.13;;;;;;;18.20;27.01;100202.61;1714548;82;21127;-71
2022/05/24 07:11:21;;;;;;;4.87;2.13;;;;;;;18.30;26.86;100200.15;1714384;82;21066;-70
2022/05/24 07:13:49;;;;;;;5.80;2.37;;;;;;;18.38;26.30;100196.64;1714550;82;21055;-70
2022/05/24 07:16:17;;;;;;;4.70;2.30;;;;;;;18.43;26.26;100200.55;1714768;82;21412;-70
2022/05/24 07:18:44;;;;;;;4.00;2.23;;;;;;;18.43;25.09;100203.81;1714228;82;21620;-70
2022/05/24 07:21:11;;;;;;;3.90;2.00;;;;;;;18.42;25.28;100198.94;1715221;82;21144;-72
2022/05/24 07:23:38;;;;;;;3.83;1.80;;;;;;;18.49;25.71;100201.16;1714021;82;20952;-70
2022/05/24 07:26:15;;;;;;;6.70;2.10;;;;;;;18.59;24.69;100206.81;1714942;82;21016;-71
2022/05/24 07:28:42;;;;;;;3.50;2.00;;;;;;;18.66;23.74;100208.51;1716282;82;21169;-70
2022/05/24 07:31:09;;;;;;;5.57;2.20;;;;;;;18.72;23.85;100205.34;1711622;82;21094;-71
2022/05/24 07:33:37;;;;;;;4.17;2.17;;;;;;;18.73;24.20;100205.58;1723334;81;21049;-70
2022/05/24 07:36:06;;;;;;;4.03;2.20;;;;;;;18.78;24.11;100219.48;1746754;81;21077;-70
2022/05/24 07:38:32;;;;;;;3.73;2.20;;;;;;;18.82;24.75;100211.52;1752084;81;21459;-69
2022/05/24 07:46:30;;;;;;;3.40;1.80;;;;;;;18.84;23.28;100212.01;1750297;79;21754;-70
2022/05/24 07:48:57;;;;;;;4.73;2.00;;;;;;;18.90;22.55;100212.08;1715034;81;21516;-71
2022/05/24 07:51:24;;;;;;;4.20;1.80;;;;;;;18.90;23.40;100214.79;1761377;80;21038;-77
2022/05/24 07:53:51;;;;;;;3.00;1.93;;;;;;;18.95;23.33;100212.72;1762728;80;21099;-76
2022/05/24 07:56:19;;;;;;;3.53;1.93;;;;;;;19.01;23.43;100207.13;1763982;80;21815;-74
2022/05/24 07:58:46;;;;;;;3.73;2.00;;;;;;;19.08;23.00;100210.13;1765491;79;21091;-74
2022/05/24 08:01:15;;;;;;;3.83;1.90;;;;;;;19.12;23.18;100202.97;1764398;80;20963;-73
2022/05/24 08:03:42;;;;;;;3.90;1.87;;;;;;;19.15;23.47;100201.77;1765711;80;21014;-74
2022/05/24 08:06:10;;;;;;;3.03;1.97;;;;;;;19.25;23.53;100210.63;1763451;80;21545;-74
2022/05/24 08:08:38;;;;;;;2.87;1.63;;;;;;;19.30;23.38;100201.78;1765976;80;21006;-70
2022/05/24 08:11:05;;;;;;;5.67;2.10;;;;;;;19.31;23.48;100207.42;1765904;80;21194;-70
2022/05/24 08:13:35;;;;;;;3.77;2.00;;;;;;;19.34;23.25;100205.42;1754498;80;21078;-72
2022/05/24 08:16:02;;;;;;;3.47;2.10;;;;;;;19.39;23.27;100203.11;1713171;82;21020;-71
2022/05/24 08:18:30;;;;;;;4.00;1.90;;;;;;;19.44;23.69;100206.98;1700454;82;21034;-70
2022/05/24 08:20:58;;;;;;;3.43;1.90;;;;;;;19.51;23.41;100204.55;1716715;82;21046;-69
2022/05/24 08:23:29;;;;;;;6.47;2.20;;;;;;;19.65;23.37;100196.27;1713676;82;20996;-70
2022/05/24 08:25:56;;;;;;;3.37;2.13;;;;;;;19.76;23.66;100208.30;1714027;82;21143;-71
2022/05/24 08:28:24;;;;;;;3.83;2.03;;;;;;;19.89;23.39;100204.56;1714006;82;21581;-70
2022/05/24 08:30:53;;;;;;;3.87;1.90;;;;;;;20.00;22.86;100205.53;1713691;82;21113;-70
2022/05/24 08:33:20;;;;;;;5.93;2.20;;;;;;;20.05;22.89;100204.00;1714751;82;21114;-70
2022/05/24 08:35:50;;;;;;;3.37;1.80;;;;;;;20.01;22.70;100203.08;1714140;82;21600;-71
2022/05/24 08:38:17;;;;;;;3.57;1.70;;;;;;;20.01;23.06;100204.44;1714822;82;21074;-69
2022/05/24 08:40:45;;;;;;;4.60;2.33;;;;;;;20.08;23.06;100203.34;1714383;82;21145;-69
2022/05/24 08:43:49;;;;;;;4.30;2.10;;;;;;;20.17;23.52;100195.95;1713815;82;21019;-70
2022/05/24 08:49:16;;;;;;;3.67;1.77;;;;;;;20.45;22.73;100196.77;1713826;82;21185;-70
2022/05/24 08:52:00;;;;;;;3.03;1.80;;;;;;;20.41;22.89;100201.27;1713936;82;21066;-70
2022/05/24 08:54:44;;;;;;;3.50;1.90;;;;;;;20.32;22.61;100201.33;1706796;82;21043;-70
2022/05/24 08:57:15;;;;;;;2.80;1.67;;;;;;;20.27;22.62;100205.59;1715833;82;21039;-71
2022/05/24 08:59:53;;;;;;;4.00;1.80;;;;;;;20.30;23.04;100196.25;1715898;82;21984;-71
2022/05/24 09:02:20;;;;;;;3.57;2.10;;;;;;;20.50;23.64;100192.48;1714407;82;21235;-70
2022/05/24 09:04:47;;;;;;;3.50;1.77;;;;;;;20.69;23.25;100193.39;1715355;82;20944;-71
2022/05/24 09:07:19;;;;;;;2.43;1.60;;;;;;;20.77;22.78;100198.74;1713676;82;21510;-71
2022/05/24 09:09:55;;;;;;;3.60;1.67;;;;;;;20.80;22.64;100200.80;1713912;82;21556;-69
2022/05/24 09:12:51;;;;;;;3.70;1.87;;;;;;;20.86;22.50;100191.85;1716421;82;21022;-70
2022/05/24 09:15:48;;;;;;;5.77;2.03;;;;;;;20.91;22.92;100199.02;1704060;82;21664;-70
2022/05/24 09:18:53;;;;;;;3.57;2.00;;;;;;;21.04;22.82;100184.34;1715369;82;21642;-71
2022/05/24 09:21:35;;;;;;;5.70;1.90;;;;;;;21.10;22.56;100184.36;1714548;82;21063;-70
2022/05/24 09:24:42;;;;;;;3.37;1.83;;;;;;;21.08;22.74;100176.53;1713596;82;21570;-70
2022/05/24 09:27:20;;;;;;;4.13;1.90;;;;;;;21.10;23.18;100183.00;1697039;82;21055;-70
2022/05/24 09:30:04;;;;;;;3.00;1.80;;;;;;;21.21;22.38;100184.14;1722853;82;21785;-70
2022/05/24 09:32:41;;;;;;;4.10;2.33;;;;;;;21.25;22.68;100178.25;1715745;82;21055;-70
2022/05/24 09:35:22;;;;;;;3.70;1.80;;;;;;;21.23;22.17;100183.81;1716025;82;21039;-70
2022/05/24 09:38:12;;;;;;;3.42;1.87;;;;;;;21.12;22.57;100180.72;1715872;82;21007;-70
2022/05/24 09:40:58;;;;;;;2.90;1.63;;;;;;;21.09;22.70;100181.39;1715649;82;22301;-70
2022/05/24 09:43:34;;;;;;;3.20;1.90;;;;;;;21.11;22.74;100181.06;1700025;82;21876;-71
2022/05/24 09:46:11;;;;;;;4.60;2.00;;;;;;;21.18;23.40;100182.09;1715552;82;21467;-72
2022/05/24 09:49:00;;;;;;;4.67;2.00;;;;;;;21.27;23.20;100182.00;1713489;82;21096;-69
2022/05/24 09:51:41;;;;;;;3.77;1.97;;;;;;;21.26;22.33;100176.35;1714511;82;21090;-71
2022/05/24 09:54:20;;;;;;;4.25;2.22;;;;;;;21.07;22.42;100176.31;1714996;82;21570;-71
2022/05/24 09:57:10;;;;;;;3.53;2.10;;;;;;;20.97;22.77;100178.67;1713500;82;21796;-70
2022/05/24 09:59:39;;;;;;;4.77;2.20;;;;;;;20.96;22.94;100185.20;1713929;82;21034;-70
2022/05/24 10:02:24;;;;;;;5.10;2.20;;;;;;;20.99;23.18;100183.18;1714018;82;21019;-69
2022/05/24 10:04:52;;;;;;;3.47;2.20;;;;;;;21.04;23.57;100170.77;1714820;82;21050;-68
2022/05/24 10:07:26;;;;;;;5.03;2.30;;;;;;;21.07;23.40;100180.95;1715897;82;21488;-70
2022/05/24 10:10:16;;;;;;;3.77;1.80;;;;;;;21.06;22.74;100172.59;1715746;82;21231;-69
2022/05/24 10:13:10;;;;;;;4.20;1.97;;;;;;;21.08;23.15;100172.45;1715261;82;21115;-70
2022/05/24 10:15:51;;;;;;;5.57;2.03;;;;;;;21.16;22.75;100168.08;1714311;82;20983;-70
2022/05/24 10:18:45;;;;;;;6.10;2.30;;;;;;;21.21;23.44;100180.63;1704444;82;21067;-70
2022/05/24 10:21:51;;;;;;;4.97;1.87;;;;;;;21.18;22.78;100175.87;1714946;83;21009;-71
2022/05/24 10:24:37;;;;;;;3.13;1.73;;;;;;;;;;1750960;80;21064;-70
2022/05/24 10:27:28;;;;;;;7.77;1.93;;;;;;;21.10;23.51;100168.06;1729434;82;21001;-71
2022/05/24 10:30:06;;;;;;;3.57;1.70;;;;;;;21.12;24.32;100165.00;1736460;82;21042;-70
2022/05/24 10:39:22;;;;;;;3.27;1.93;;;;;;;21.23;23.63;100169.66;1763821;80;22026;-69
2022/05/24 10:42:28;;;;;;;5.23;2.00;;;;;;;21.23;23.57;100166.95;1763723;80;21042;-71
2022/05/24 10:45:04;;;;;;;4.80;1.80;;;;;;;21.22;23.91;100169.45;1764962;80;20955;-69
2022/05/24 10:47:45;;;;;;;6.27;2.27;;;;;;;21.24;23.47;100182.11;1760164;80;21477;-69
2022/05/24 10:50:38;;;;;;;5.10;1.90;;;;;;;21.24;23.84;100172.59;1765060;81;20990;-69
2022/05/24 10:53:09;;;;;;;3.57;1.83;;;;;;;21.27;23.63;100171.92;1761910;80;22230;-70
2022/05/24 10:55:43;;;;;;;4.30;2.15;;;;;;;21.31;23.44;100174.19;1778801;80;20923;-71
2022/05/24 10:58:13;;;;;;;4.90;2.00;;;;;;;21.30;23.96;100171.25;1777106;80;21540;-69
2022/05/24 11:00:54;;;;;;;4.60;2.13;;;;;;;21.38;23.71;100166.07;1778068;80;21644;-69
2022/05/24 11:03:29;;;;;;;4.03;1.90;;;;;;;21.46;23.45;100162.47;1778270;79;21087;-68
2022/05/24 11:06:08;;;;;;;7.30;2.10;;;;;;;21.56;23.74;100172.09;1771255;79;21407;-71
2022/05/24 11:08:49;;;;;;;3.80;1.90;;;;;;;21.65;24.41;100172.20;1768457;79;21097;-69
2022/05/24 11:11:55;;;;;;;3.62;1.90;;;;;;;21.64;22.98;100165.16;1768566;80;20995;-70
2022/05/24 11:14:59;;;;;;;5.60;1.83;;;;;;;21.58;23.78;100165.73;1730894;81;21087;-69
2022/05/24 11:17:26;;;;;;;2.90;1.73;;;;;;;21.61;24.17;100168.56;1748749;80;21147;-68
2022/05/24 11:19:55;;;;;;;4.10;1.80;;;;;;;21.74;23.48;100166.05;1762815;80;21156;-68
2022/05/24 11:22:41;;;;;;;3.40;1.70;;;;;;;21.80;23.83;100170.70;1764647;80;21010;-69
2022/05/24 11:25:28;;;;;;;5.37;2.00;;;;;;;21.85;23.27;100171.03;1713579;82;21079;-70
2022/05/24 11:28:03;;;;;;;4.27;1.97;;;;;;;21.78;23.15;100178.39;1714500;82;21050;-69
2022/05/24 11:30:39;;;;;;;10.40;3.03;;;;;;;21.73;23.57;100165.84;1714281;82;21019;-70
2022/05/24 11:33:11;;;;;;;4.83;2.30;;;;;;;21.75;23.65;100171.73;1700850;82;21131;-69
2022/05/24 11:35:45;;;;;;;;;;;;;;;21.74;23.30;100161.19;1718237;82;21011;-69
2022/05/24 11:38:26;;;;;;;7.70;3.00;;;;;;;21.73;24.06;100167.77;1715518;82;20156;-70
2022/05/24 11:41:17;;;;;;;5.37;2.20;;;;;;;21.74;24.06;100163.34;1716110;82;20983;-69
2022/05/24 11:43:49;;;;;;;5.27;1.97;;;;;;;21.77;24.32;100163.23;1715602;82;21087;-68
2022/05/24 11:46:41;;;;;;;4.53;2.23;;;;;;;21.78;24.57;100166.98;1715683;82;21654;-69
2022/05/24 11:49:22;;;;;;;3.70;1.80;;;;;;;21.75;24.15;100160.87;1713706;82;21160;-69
2022/05/24 11:51:50;;;;;;;3.23;1.80;;;;;;;21.83;24.22;100162.44;1711893;82;21565;-70
2022/05/24 11:54:23;;;;;;;5.53;1.87;;;;;;;21.89;24.12;100161.07;1714631;82;21046;-69
2022/05/24 11:57:01;;;;;;;3.70;1.90;;;;;;;21.95;24.37;100163.21;1714089;82;21578;-70
2022/05/24 11:59:46;;;;;;;3.80;1.90;;;;;;;21.99;23.93;100168.19;1705018;82;21157;-69
2022/05/24 12:07:54;;;;;;;3.53;2.07;;;;;;;21.99;24.01;100168.19;1710061;82;21641;-70
2022/05/24 12:08:01;;;;;;;2.77;1.77;;;;;;;22.08;23.59;100158.55;1704263;82;21530;-70
2022/05/24 12:10:49;;;;;;;4.73;1.90;;;;;;;22.14;23.95;100153.63;1715618;82;21000;-71
2022/05/24 12:13:39;;;;;;;4.63;1.90;;;;;;;22.11;23.94;100151.06;1700365;82;21220;-70
2022/05/24 12:16:27;;;;;;;3.77;2.00;;;;;;;22.16;24.39;100162.28;1707468;82;20936;-69
2022/05/24 12:18:59;;;;;;;4.67;1.70;;;;;;;22.22;23.45;100154.89;1707633;82;21026;-70
2022/05/24 12:21:43;;;;;;;3.30;1.70;;;;;;;22.27;24.02;100152.48;1705097;82;21495;-71
2022/05/24 12:24:33;;;;;;;3.13;1.80;;;;;;;22.29;23.43;100158.39;1706133;82;21102;-70